createdAt,value
2019-04-21T00:00:24.062Z,50.80
2019-04-21T00:02:50.918Z,51.00
2019-04-21T00:05:32.858Z,52.00
2019-04-21T00:08:10.758Z,51.40
2019-04-21T00:10:35.798Z,52.60
2019-04-21T00:12:53.466Z,53.90
2019-04-21T00:15:19.444Z,53.90
2019-04-21T00:17:34.758Z,54.00
2019-04-21T00:20:13.778Z,54.90
2019-04-21T00:22:41.909Z,54.70
2019-04-21T00:25:08.963Z,53.50
2019-04-21T00:27:38.422Z,54.30
2019-04-21T00:30:12.491Z,55.50
2019-04-21T00:32:27.915Z,54.90
2019-04-21T00:34:50.442Z,54.70
2019-04-21T00:37:18.905Z,55.30
2019-04-21T00:40:00.014Z,54.90
2019-04-21T00:42:22.811Z,55.40
2019-04-21T00:44:51.173Z,56.10
2019-04-21T00:47:15.644Z,56.60
2019-04-21T00:49:45.356Z,56.80
2019-04-21T00:52:45.128Z,57.20
2019-04-21T00:55:18.130Z,56.00
2019-04-21T00:57:38.855Z,54.90
2019-04-21T00:59:59.706Z,54.60
2019-04-21T01:02:27.905Z,56.70
2019-04-21T01:05:01.653Z,57.00
2019-04-21T01:07:19.427Z,57.90
2019-04-21T01:09:43.303Z,58.50
2019-04-21T01:12:12.455Z,58.30
2019-04-21T01:14:50.080Z,57.30
2019-04-21T01:17:15.697Z,57.30
2019-04-21T01:19:36.478Z,57.50
2019-04-21T01:21:39.984Z,57.70
2019-04-21T01:24:13.395Z,58.10
2019-04-21T01:26:43.760Z,58.60
2019-04-21T01:29:15.499Z,58.90
2019-04-21T01:31:43.878Z,59.30
2019-04-21T01:34:14.821Z,60.40
2019-04-21T01:36:41.526Z,61.80
2019-04-21T01:39:18.099Z,61.90
2019-04-21T01:41:42.874Z,62.10
2019-04-21T01:44:01.544Z,62.50
2019-04-21T01:46:28.379Z,62.00
2019-04-21T01:48:53.769Z,60.60
2019-04-21T01:51:23.523Z,60.70
2019-04-21T01:54:07.645Z,60.20
2019-04-21T01:56:44.854Z,59.80
2019-04-21T01:59:00.690Z,59.40
2019-04-21T02:01:46.244Z,59.10
2019-04-21T02:04:02.744Z,58.70
2019-04-21T02:06:36.209Z,58.30
2019-04-21T02:08:58.049Z,58.40
2019-04-21T02:11:30.053Z,58.30
2019-04-21T02:14:02.013Z,58.80
2019-04-21T02:16:24.936Z,58.80
2019-04-21T02:18:43.774Z,59.20
2019-04-21T02:21:04.140Z,58.60
2019-04-21T02:23:46.345Z,58.70
2019-04-21T02:26:09.287Z,58.30
2019-04-21T02:28:45.154Z,58.30
2019-04-21T02:31:29.091Z,58.00
2019-04-21T02:33:49.582Z,57.40
2019-04-21T02:46:02.066Z,58.90
2019-04-21T02:48:28.618Z,60.50
2019-04-21T02:53:21.188Z,63.30
2019-04-21T02:55:44.208Z,63.50
2019-04-21T02:58:16.003Z,63.70
2019-04-21T03:00:59.720Z,65.00
2019-04-21T03:03:37.916Z,65.30
2019-04-21T03:06:16.801Z,64.90
2019-04-21T03:08:53.235Z,65.70
2019-04-21T03:11:14.065Z,66.20
2019-04-21T03:16:20.168Z,67.00
2019-04-21T03:18:42.080Z,66.70
2019-04-21T03:21:16.501Z,66.70
2019-04-21T03:23:29.727Z,68.50
2019-04-21T03:26:00.824Z,68.60
2019-04-21T03:28:27.838Z,69.20
2019-04-21T03:36:12.959Z,68.40
2019-04-21T03:38:17.249Z,68.80
2019-04-21T03:40:32.317Z,67.60
2019-04-21T03:43:04.910Z,67.30
2019-04-21T03:45:39.297Z,66.90
2019-04-21T03:50:29.605Z,67.70
2019-04-21T03:53:00.834Z,68.00
2019-04-21T03:55:48.917Z,69.00
2019-04-21T04:00:35.254Z,69.90
2019-04-21T04:02:55.666Z,70.20
2019-04-21T04:08:22.790Z,71.00
2019-04-21T04:10:31.386Z,71.00
2019-04-21T04:13:02.816Z,71.50
2019-04-21T04:17:46.837Z,72.00
2019-04-21T04:20:22.459Z,72.50
2019-04-21T04:22:52.165Z,72.50
2019-04-21T04:25:11.216Z,72.40
2019-04-21T04:27:52.596Z,72.70
2019-04-21T04:30:10.301Z,72.80
2019-04-21T04:32:40.609Z,73.60
2019-04-21T04:35:03.266Z,73.80
2019-04-21T04:45:26.535Z,73.90
2019-04-21T04:47:46.612Z,74.10
2019-04-21T04:50:15.497Z,73.90
2019-04-21T04:53:07.681Z,74.00
2019-04-21T04:55:01.785Z,73.70
2019-04-21T04:57:36.596Z,73.00
2019-04-21T05:02:30.488Z,74.70
2019-04-21T05:04:54.933Z,74.80
2019-04-21T05:07:27.136Z,75.00
2019-04-21T05:09:50.533Z,74.60
2019-04-21T05:12:24.805Z,74.60
2019-04-21T05:14:41.116Z,74.30
2019-04-21T05:17:10.802Z,74.10
2019-04-21T05:19:39.011Z,74.10
2019-04-21T05:21:54.676Z,74.10
2019-04-21T05:24:17.828Z,74.50
2019-04-21T05:26:46.237Z,74.80
2019-04-21T05:29:05.270Z,74.70
2019-04-21T05:31:52.415Z,74.30
2019-04-21T05:34:17.056Z,73.00
2019-04-21T05:36:52.385Z,74.20
2019-04-21T05:39:23.395Z,73.80
2019-04-21T05:41:48.899Z,72.20
2019-04-21T05:44:37.973Z,72.10
2019-04-21T05:47:05.536Z,72.10
2019-04-21T05:49:42.064Z,71.50
2019-04-21T05:52:04.061Z,71.20
2019-04-21T05:56:59.831Z,70.90
2019-04-21T05:59:26.003Z,71.20
2019-04-21T06:02:09.006Z,70.10
2019-04-21T06:04:38.613Z,69.90
2019-04-21T06:07:02.086Z,69.20
2019-04-21T06:09:19.012Z,67.40
2019-04-21T06:11:42.384Z,65.90
2019-04-21T06:14:14.025Z,66.70
2019-04-21T06:16:43.075Z,66.60
2019-04-21T06:19:06.689Z,66.80
2019-04-21T06:21:35.535Z,66.20
2019-04-21T06:23:57.391Z,65.10
2019-04-21T06:26:52.093Z,63.40
2019-04-21T06:28:50.250Z,62.10
2019-04-21T06:31:33.791Z,61.50
2019-04-21T06:39:01.754Z,61.30
2019-04-21T06:41:25.005Z,61.70
2019-04-21T06:43:48.577Z,61.40
2019-04-21T06:46:22.878Z,61.50
2019-04-21T06:48:44.121Z,61.50
2019-04-21T06:51:09.005Z,61.10
2019-04-21T06:53:37.700Z,60.20
2019-04-21T06:56:00.140Z,59.50
2019-04-21T06:58:25.235Z,58.30
2019-04-21T07:00:50.531Z,58.10
2019-04-21T07:03:29.426Z,56.90
2019-04-21T07:05:51.980Z,56.60
2019-04-21T07:08:32.757Z,56.20
2019-04-21T07:10:37.032Z,55.60
2019-04-21T07:13:03.295Z,55.70
2019-04-21T07:15:37.028Z,55.00
2019-04-21T07:17:57.992Z,54.20
2019-04-21T07:20:28.274Z,53.80
2019-04-21T07:22:57.259Z,53.30
2019-04-21T07:25:22.644Z,51.70
2019-04-21T07:30:22.555Z,49.80
2019-04-21T07:32:47.514Z,49.50
2019-04-21T07:35:09.981Z,48.70
2019-04-21T07:37:35.090Z,48.30
2019-04-21T07:40:01.795Z,46.80
2019-04-21T07:42:23.856Z,46.40
2019-04-21T07:44:54.784Z,45.70
2019-04-21T07:47:28.432Z,44.60
2019-04-21T07:50:03.394Z,44.40
2019-04-21T07:52:52.109Z,43.70
2019-04-21T07:57:35.162Z,42.30
2019-04-21T08:05:08.822Z,42.10
2019-04-21T08:07:37.600Z,41.30
2019-04-21T08:09:51.031Z,41.30
2019-04-21T08:12:16.013Z,41.90
2019-04-21T08:14:51.785Z,41.70
2019-04-21T08:17:16.704Z,41.70
2019-04-21T08:19:35.889Z,42.10
2019-04-21T08:22:42.650Z,41.60
2019-04-21T08:24:51.861Z,40.50
2019-04-21T08:27:17.735Z,39.90
2019-04-21T08:29:49.818Z,38.70
2019-04-21T08:32:09.783Z,39.10
2019-04-21T08:34:34.844Z,38.10
2019-04-21T08:36:57.408Z,37.70
2019-04-21T08:39:32.922Z,36.80
2019-04-21T08:41:58.759Z,36.40
2019-04-21T08:44:26.187Z,36.90
2019-04-21T08:46:52.794Z,36.90
2019-04-21T08:49:15.022Z,36.70
2019-04-21T08:51:52.239Z,36.70
2019-04-21T08:54:15.168Z,37.20
2019-04-21T08:56:54.673Z,37.20
2019-04-21T08:59:31.247Z,37.20
2019-04-21T09:01:55.600Z,36.40
2019-04-21T09:04:23.425Z,36.60
2019-04-21T09:09:27.850Z,36.00
2019-04-21T09:11:49.881Z,35.80
2019-04-21T09:14:13.408Z,35.00
2019-04-21T09:16:36.981Z,34.10
2019-04-21T09:18:59.499Z,31.50
2019-04-21T09:21:31.771Z,30.80
2019-04-21T09:24:10.068Z,28.40
2019-04-21T09:26:34.009Z,29.00
2019-04-21T09:28:48.171Z,26.20
2019-04-21T09:31:06.356Z,26.00
2019-04-21T09:33:37.736Z,24.80
2019-04-21T09:36:02.575Z,25.10
2019-04-21T09:38:33.843Z,24.50
2019-04-21T09:40:54.488Z,24.20
2019-04-21T09:43:25.665Z,24.40
2019-04-21T09:45:45.383Z,23.60
2019-04-21T09:48:17.107Z,23.20
2019-04-21T09:50:39.807Z,22.90
2019-04-21T09:53:16.953Z,23.90
2019-04-21T09:55:43.984Z,23.60
2019-04-21T09:58:12.718Z,23.90
2019-04-21T10:00:30.887Z,23.30
2019-04-21T10:03:00.835Z,22.70
2019-04-21T10:05:21.447Z,23.50
2019-04-21T10:07:48.943Z,22.60
2019-04-21T10:10:15.060Z,22.00
2019-04-21T10:12:43.278Z,22.50
2019-04-21T10:15:10.538Z,22.00
2019-04-21T10:17:39.536Z,21.60
2019-04-21T10:20:07.181Z,22.20
2019-04-21T10:22:35.012Z,20.90
2019-04-21T10:25:00.955Z,21.10
2019-04-21T10:27:29.156Z,21.70
2019-04-21T10:29:56.104Z,20.10
2019-04-21T10:32:25.183Z,20.00
2019-04-21T10:34:49.618Z,20.40
2019-04-21T10:37:16.691Z,20.30
2019-04-21T10:39:43.170Z,19.90
2019-04-21T10:42:11.279Z,19.30
2019-04-21T10:44:37.112Z,19.30
2019-04-21T10:47:04.785Z,19.10
2019-04-21T10:49:30.979Z,19.40
2019-04-21T10:51:59.022Z,19.40
2019-04-21T10:54:26.099Z,19.50
2019-04-21T10:56:52.545Z,19.00
2019-04-21T10:59:18.784Z,19.20
2019-04-21T11:01:47.080Z,19.00
2019-04-21T11:04:23.677Z,19.10
2019-04-21T11:06:44.452Z,18.70
2019-04-21T11:09:11.421Z,18.90
2019-04-21T11:11:39.623Z,18.40
2019-04-21T11:14:06.487Z,18.50
2019-04-21T11:16:33.208Z,18.20
2019-04-21T11:18:59.986Z,17.50
2019-04-21T11:21:27.103Z,17.70
2019-04-21T11:23:54.153Z,17.40
2019-04-21T11:26:20.271Z,17.80
2019-04-21T11:28:47.418Z,18.20
2019-04-21T11:31:15.453Z,18.40
2019-04-21T11:33:41.155Z,18.20
2019-04-21T11:36:09.074Z,18.00
2019-04-21T11:38:58.076Z,18.80
2019-04-21T11:41:08.083Z,18.70
2019-04-21T11:43:35.173Z,18.30
2019-04-21T11:46:02.595Z,18.00
2019-04-21T11:48:30.263Z,17.70
2019-04-21T11:50:57.130Z,17.30
2019-04-21T11:53:23.160Z,17.90
2019-04-21T11:55:51.795Z,17.50
2019-04-21T11:58:18.068Z,18.20
2019-04-21T12:00:43.739Z,17.80
2019-04-21T12:03:13.579Z,17.50
2019-04-21T12:05:37.767Z,17.70
2019-04-21T12:08:16.193Z,18.00
2019-04-21T12:10:31.699Z,17.70
2019-04-21T12:12:59.251Z,18.40
2019-04-21T12:15:27.008Z,17.40
2019-04-21T12:17:52.580Z,18.00
2019-04-21T12:20:20.639Z,18.30
2019-04-21T12:22:47.426Z,18.10
2019-04-21T12:25:15.567Z,18.60
2019-04-21T12:27:43.764Z,17.40
2019-04-21T12:30:09.467Z,17.90
2019-04-21T12:32:46.299Z,17.10
2019-04-21T12:35:13.320Z,18.20
2019-04-21T12:37:40.645Z,17.70
2019-04-21T12:40:08.415Z,18.20
2019-04-21T12:42:34.575Z,18.00
2019-04-21T12:45:01.398Z,17.70
2019-04-21T12:47:28.064Z,18.20
2019-04-21T12:49:55.001Z,18.50
2019-04-21T12:52:21.943Z,18.20
2019-04-21T12:54:48.885Z,18.30
2019-04-21T12:57:17.086Z,19.60
2019-04-21T12:59:42.774Z,17.20
2019-04-21T13:02:09.722Z,19.10
2019-04-21T13:04:37.853Z,18.70
2019-04-21T13:07:03.735Z,17.60
2019-04-21T13:09:32.122Z,18.60
2019-04-21T13:11:57.532Z,18.60
2019-04-21T13:14:24.452Z,18.60
2019-04-21T13:16:51.740Z,18.20
2019-04-21T13:19:18.368Z,18.10
2019-04-21T13:21:45.839Z,18.20
2019-04-21T13:24:13.603Z,17.60
2019-04-21T13:26:45.660Z,18.50
2019-04-21T13:29:07.796Z,18.60
2019-04-21T13:31:34.210Z,18.80
2019-04-21T13:34:02.042Z,18.20
2019-04-21T13:36:27.737Z,18.20
2019-04-21T13:39:53.627Z,19.00
2019-04-21T13:41:57.056Z,18.90
2019-04-21T13:44:15.772Z,19.00
2019-04-21T13:46:43.012Z,19.00
2019-04-21T13:49:09.454Z,19.20
2019-04-21T13:51:36.070Z,19.00
2019-04-21T13:54:03.970Z,18.90
2019-04-21T13:56:29.345Z,18.20
2019-04-21T13:58:56.277Z,19.10
2019-04-21T14:01:23.527Z,18.70
2019-04-21T14:03:51.392Z,19.50
2019-04-21T14:06:18.345Z,19.10
2019-04-21T14:08:45.371Z,19.60
2019-04-21T14:11:11.396Z,19.80
2019-04-21T14:13:38.535Z,18.90
2019-04-21T14:16:06.161Z,18.80
2019-04-21T14:18:32.907Z,18.20
2019-04-21T14:20:58.774Z,19.50
2019-04-21T14:23:34.491Z,19.50
2019-04-21T14:25:53.361Z,19.40
2019-04-21T14:28:19.938Z,18.70
2019-04-21T14:30:48.211Z,19.30
2019-04-21T14:33:14.179Z,18.20
2019-04-21T14:35:41.070Z,19.30
2019-04-21T14:38:08.937Z,18.50
2019-04-21T14:40:35.547Z,19.30
2019-04-21T14:43:02.694Z,19.00
2019-04-21T14:45:34.722Z,19.20
2019-04-21T14:48:21.256Z,19.00
2019-04-21T14:51:09.263Z,18.80
2019-04-21T14:53:45.646Z,20.30
2019-04-21T14:56:13.264Z,20.60
2019-04-21T14:58:39.221Z,21.70
2019-04-21T15:01:06.103Z,21.50
2019-04-21T15:03:34.159Z,20.50
2019-04-21T15:06:01.070Z,20.90
2019-04-21T15:08:27.099Z,21.20
2019-04-21T15:10:54.958Z,21.20
2019-04-21T15:13:21.803Z,20.90
2019-04-21T15:15:47.939Z,21.10
2019-04-21T15:18:14.757Z,20.90
2019-04-21T15:20:42.528Z,20.90
2019-04-21T15:23:08.660Z,21.40
2019-04-21T15:25:36.277Z,21.40
2019-04-21T15:28:03.208Z,21.00
2019-04-21T15:30:29.599Z,21.00
2019-04-21T15:32:57.835Z,20.80
2019-04-21T15:35:24.666Z,21.30
2019-04-21T15:37:51.799Z,21.30
2019-04-21T15:40:25.309Z,21.60
2019-04-21T15:42:44.425Z,21.30
2019-04-21T15:45:12.609Z,21.00
2019-04-21T15:47:38.329Z,21.40
2019-04-21T15:50:10.170Z,21.70
2019-04-21T15:52:32.182Z,21.60
2019-04-21T15:55:05.193Z,21.60
2019-04-21T15:57:37.746Z,20.60
2019-04-21T16:00:18.420Z,21.00
2019-04-21T16:02:46.634Z,21.50
2019-04-21T16:05:12.990Z,21.40
2019-04-21T16:07:40.347Z,21.60
2019-04-21T16:10:09.893Z,22.20
2019-04-21T16:12:33.924Z,21.80
2019-04-21T16:15:00.727Z,21.40
2019-04-21T16:17:27.623Z,21.40
2019-04-21T16:19:54.341Z,21.60
2019-04-21T16:22:21.222Z,21.60
2019-04-21T16:24:48.145Z,21.40
2019-04-21T16:27:15.318Z,21.70
2019-04-21T16:29:42.012Z,21.80
2019-04-21T16:32:09.163Z,21.80
2019-04-21T16:34:45.321Z,21.90
2019-04-21T16:37:03.645Z,21.40
2019-04-21T16:39:31.461Z,21.60
2019-04-21T16:41:58.345Z,21.60
2019-04-21T16:44:25.301Z,21.80
2019-04-21T16:46:51.788Z,21.50
2019-04-21T16:49:19.883Z,22.00
2019-04-21T16:51:46.354Z,22.00
2019-04-21T16:54:19.989Z,22.20
2019-04-21T16:56:59.835Z,22.00
2019-04-21T16:59:32.691Z,20.70
2019-04-21T17:01:58.793Z,21.60
2019-04-21T17:04:26.482Z,21.90
2019-04-21T17:06:53.298Z,22.00
2019-04-21T17:09:20.819Z,22.10
2019-04-21T17:11:46.956Z,22.10
2019-04-21T17:14:34.607Z,22.50
2019-04-21T17:17:03.252Z,22.20
2019-04-21T17:19:17.324Z,21.80
2019-04-21T17:21:34.352Z,22.30
2019-04-21T17:24:02.119Z,22.60
2019-04-21T17:26:29.022Z,21.90
2019-04-21T17:28:56.472Z,22.00
2019-04-21T17:31:22.379Z,22.20
2019-04-21T17:33:59.206Z,22.50
2019-04-21T17:36:17.092Z,22.30
2019-04-21T17:38:43.987Z,22.40
2019-04-21T17:41:21.303Z,22.30
2019-04-21T17:43:39.269Z,22.20
2019-04-21T17:46:04.945Z,22.40
2019-04-21T17:48:32.465Z,22.50
2019-04-21T17:51:05.304Z,22.60
2019-04-21T17:53:44.868Z,22.50
2019-04-21T17:56:23.442Z,22.70
2019-04-21T17:58:52.370Z,22.70
2019-04-21T18:01:19.570Z,22.90
2019-04-21T18:03:53.520Z,23.00
2019-04-21T18:06:05.297Z,22.90
2019-04-21T18:08:40.798Z,22.90
2019-04-21T18:10:57.957Z,22.90
2019-04-21T18:13:17.586Z,22.30
2019-04-21T18:15:53.451Z,23.30
2019-04-21T18:18:06.641Z,23.30
2019-04-21T18:20:35.385Z,23.00
2019-04-21T18:23:22.808Z,23.40
2019-04-21T18:25:47.375Z,23.70
2019-04-21T18:28:06.459Z,23.80
2019-04-21T18:30:52.301Z,23.80
2019-04-21T18:33:27.227Z,24.10
2019-04-21T18:35:53.050Z,24.40
2019-04-21T18:38:29.585Z,24.70
2019-04-21T18:40:54.245Z,24.20
2019-04-21T18:46:20.519Z,24.40
2019-04-21T18:48:42.156Z,24.60
2019-04-21T18:51:34.646Z,24.60
2019-04-21T18:54:16.189Z,24.60
2019-04-21T18:56:23.077Z,24.30
2019-04-21T18:58:48.683Z,24.40
2019-04-21T19:01:22.856Z,25.00
2019-04-21T19:03:47.151Z,24.70
2019-04-21T19:06:16.416Z,24.50
2019-04-21T19:08:59.728Z,24.80
2019-04-21T19:11:23.802Z,25.00
2019-04-21T19:13:59.854Z,25.40
2019-04-21T19:16:38.918Z,25.30
2019-04-21T19:19:04.847Z,25.50
2019-04-21T19:21:10.175Z,26.00
2019-04-21T19:24:01.839Z,26.50
2019-04-21T19:26:25.160Z,26.70
2019-04-21T19:28:41.794Z,26.80
2019-04-21T19:31:11.329Z,27.30
2019-04-21T19:33:27.382Z,26.90
2019-04-21T19:35:39.354Z,27.40
2019-04-21T19:38:10.110Z,27.20
2019-04-21T19:40:49.471Z,27.60
2019-04-21T19:43:09.417Z,27.70
2019-04-21T19:45:36.761Z,28.10
2019-04-21T19:48:13.572Z,28.10
2019-04-21T19:50:41.203Z,28.20
2019-04-21T19:52:57.399Z,28.20
2019-04-21T19:55:16.077Z,28.60
2019-04-21T19:57:43.176Z,29.20
2019-04-21T20:00:10.070Z,30.10
2019-04-21T20:02:36.384Z,31.60
2019-04-21T20:05:07.919Z,30.40
2019-04-21T20:07:44.558Z,30.00
2019-04-21T20:10:20.772Z,29.70
2019-04-21T20:12:56.662Z,30.00
2019-04-21T20:15:23.300Z,30.50
2019-04-21T20:17:36.528Z,30.70
2019-04-21T20:19:44.845Z,30.60
2019-04-21T20:22:11.781Z,31.20
2019-04-21T20:24:40.042Z,31.70
2019-04-21T20:27:13.642Z,32.30
2019-04-21T20:29:48.795Z,33.20
2019-04-21T20:32:24.353Z,33.50
2019-04-21T20:34:46.350Z,33.40
2019-04-21T20:37:19.117Z,33.70
2019-04-21T20:39:26.141Z,33.60
2019-04-21T20:42:04.113Z,33.80
2019-04-21T20:44:30.943Z,33.80
2019-04-21T20:46:58.146Z,34.20
2019-04-21T20:49:20.237Z,34.60
2019-04-21T20:52:01.196Z,35.00
2019-04-21T20:54:20.888Z,35.70
2019-04-21T20:56:53.155Z,35.50
2019-04-21T20:59:12.156Z,35.90
2019-04-21T21:01:39.797Z,36.30
2019-04-21T21:04:07.661Z,36.20
2019-04-21T21:06:32.625Z,35.40
2019-04-21T21:09:01.389Z,35.60
2019-04-21T21:11:35.290Z,35.40
2019-04-21T21:14:00.379Z,35.80
2019-04-21T21:16:35.040Z,35.90
2019-04-21T21:19:04.961Z,35.90
2019-04-21T21:21:15.168Z,35.80
2019-04-21T21:23:42.775Z,36.00
2019-04-21T21:26:18.757Z,36.10
2019-04-21T21:28:32.631Z,36.10
2019-04-21T21:31:11.509Z,36.80
2019-04-21T21:33:38.696Z,36.60
2019-04-21T21:36:03.368Z,37.40
2019-04-21T21:38:28.123Z,37.20
2019-04-21T21:40:49.661Z,38.10
2019-04-21T21:43:08.278Z,37.70
2019-04-21T21:45:37.690Z,37.30
2019-04-21T21:48:11.479Z,38.20
2019-04-21T21:50:28.204Z,38.00
2019-04-21T21:53:00.511Z,38.20
2019-04-21T21:55:17.246Z,37.80
2019-04-21T21:57:49.905Z,37.70
2019-04-21T22:00:15.462Z,37.60
2019-04-21T22:02:45.564Z,38.10
2019-04-21T22:05:12.523Z,38.60
2019-04-21T22:07:33.721Z,38.70
2019-04-21T22:10:00.024Z,38.30
2019-04-21T22:12:29.201Z,37.90
2019-04-21T22:14:55.552Z,38.00
2019-04-21T22:17:34.717Z,38.70
2019-04-21T22:20:10.515Z,39.00
2019-04-21T22:22:27.812Z,39.40
2019-04-21T22:24:53.178Z,39.50
2019-04-21T22:27:09.481Z,38.90
2019-04-21T22:29:41.869Z,39.50
2019-04-21T22:32:11.353Z,39.40
2019-04-21T22:34:35.990Z,39.40
2019-04-21T22:37:16.132Z,39.40
2019-04-21T22:39:42.117Z,39.70
2019-04-21T22:42:03.161Z,40.30
2019-04-21T22:44:18.852Z,40.10
2019-04-21T22:46:57.345Z,40.10
2019-04-21T22:49:13.140Z,40.10
2019-04-21T22:51:44.910Z,40.10
2019-04-21T22:54:06.498Z,40.10
2019-04-21T22:56:35.234Z,40.40
2019-04-21T22:59:04.288Z,40.60
2019-04-21T23:01:33.527Z,40.50
2019-04-21T23:04:00.443Z,40.30
2019-04-21T23:06:25.863Z,40.70
2019-04-21T23:08:49.863Z,40.90
2019-04-21T23:11:16.659Z,40.60
2019-04-21T23:13:46.049Z,40.30
2019-04-21T23:16:09.974Z,40.70
2019-04-21T23:18:53.047Z,40.40
2019-04-21T23:21:17.315Z,41.10
2019-04-21T23:23:52.876Z,40.60
2019-04-21T23:26:19.336Z,41.40
2019-04-21T23:28:45.640Z,41.50
2019-04-21T23:31:12.341Z,41.30
2019-04-21T23:33:21.435Z,42.40
2019-04-21T23:35:49.286Z,42.60
2019-04-21T23:38:14.757Z,42.10
2019-04-21T23:40:50.260Z,42.50
2019-04-21T23:43:13.405Z,43.00
2019-04-21T23:45:38.244Z,43.00
2019-04-21T23:48:14.614Z,43.10
2019-04-21T23:50:37.859Z,43.80
2019-04-21T23:52:55.444Z,44.20
2019-04-21T23:55:23.235Z,44.50
2019-04-21T23:57:50.712Z,46.40
